^^
Meteo Knjazevac Station Historical Data
Daily Summary for February 16, 2021 Units:  English    Metric   Both
Daily Weekly Monthly Yearly Custom
  High: Low: Average:
Temperature: 47.9 °F 32.9 °F 40.5 °F
Dew Point: 43.3 °F 32.7 °F 38.4 °F
Humidity: 99% 83% 93%
Wind Speed: 9mph 0mph 3.2mph
Wind Gust: 19mph - -
Wind- - South
Pressure: 30.40 in 30.30 in -
Precipitation: 0.00 in    
Historical Graphs
 
 
Tabular Data for February 16, 2021
Time Temperature Dew Point Pressure Wind Wind Speed Wind Gust Humidity Rainfall Rate (Hourly) solar Conditions
00:00 36.3 °F 35.8 °F 30.39 in NE 2 mph 5 mph 98% 0.00 in 0 W/m2
00:10 36 °F 35.5 °F 30.39 in East 2 mph 5 mph 98% 0.00 in 0 W/m2
00:20 36.1 °F 35.6 °F 30.39 in East 1 mph 4 mph 98% 0.00 in 0 W/m2
00:30 36 °F 35.5 °F 30.39 in ENE 1 mph 6 mph 98% 0.00 in 0 W/m2
00:40 35.8 °F 35.3 °F 30.39 in Calm   5 mph 98% 0.00 in 0 W/m2
00:50 35.6 °F 35.1 °F 30.39 in ESE 1 mph 5 mph 98% 0.00 in 0 W/m2
01:00 35.4 °F 34.9 °F 30.39 in SE 3 mph 7 mph 98% 0.00 in 0 W/m2
01:10 35.4 °F 34.9 °F 30.39 in SE 1 mph 7 mph 98% 0.00 in 0 W/m2
01:20 35.4 °F 35.2 °F 30.39 in North 2 mph 3 mph 99% 0.00 in 0 W/m2
01:30 35.2 °F 35 °F 30.39 in East 1 mph 4 mph 99% 0.00 in 0 W/m2
01:40 35.4 °F 35.2 °F 30.39 in SE 2 mph 5 mph 99% 0.00 in 0 W/m2
01:50 35.2 °F 35 °F 30.39 in SE 3 mph 7 mph 99% 0.00 in 0 W/m2
02:00 34.9 °F 34.4 °F 30.39 in Calm   6 mph 98% 0.00 in 0 W/m2
02:10 34.9 °F 34.6 °F 30.39 in SE 1 mph 4 mph 99% 0.00 in 0 W/m2
02:20 34.7 °F 34.4 °F 30.39 in South 2 mph 5 mph 99% 0.00 in 0 W/m2
02:30 34.3 °F 34.1 °F 30.40 in South 2 mph 6 mph 99% 0.00 in 0 W/m2
02:40 34.2 °F 33.9 °F 30.40 in NNW 1 mph 4 mph 99% 0.00 in 0 W/m2
02:50 34 °F 33.7 °F 30.40 in West 1 mph 3 mph 99% 0.00 in 0 W/m2
03:00 33.8 °F 33.5 °F 30.40 in SSW 2 mph 4 mph 99% 0.00 in 0 W/m2
03:10 33.6 °F 33.4 °F 30.40 in WSW 2 mph 3 mph 99% 0.00 in 0 W/m2
03:20 33.4 °F 33.2 °F 30.39 in Calm   3 mph 99% 0.00 in 0 W/m2
03:30 33.3 °F 33 °F 30.39 in Calm   1 mph 99% 0.00 in 0 W/m2
03:40 33.1 °F 32.8 °F 30.39 in WNW 1 mph 2 mph 99% 0.00 in 0 W/m2
03:50 32.9 °F 32.7 °F 30.39 in Calm   2 mph 99% 0.00 in 0 W/m2
04:00 32.9 °F 32.7 °F 30.39 in Calm   3 mph 99% 0.00 in 0 W/m2
04:10 32.9 °F 32.7 °F 30.38 in Calm   3 mph 99% 0.00 in 0 W/m2
04:20 32.9 °F 32.7 °F 30.38 in NNE 2 mph 4 mph 99% 0.00 in 0 W/m2
04:30 32.9 °F 32.7 °F 30.38 in SSE 1 mph 4 mph 99% 0.00 in 0 W/m2
04:40 33.1 °F 32.8 °F 30.39 in North 2 mph 3 mph 99% 0.00 in 0 W/m2
04:50 33.1 °F 32.8 °F 30.39 in WNW 1 mph 2 mph 99% 0.00 in 0 W/m2
05:00 33.3 °F 33 °F 30.39 in Calm   3 mph 99% 0.00 in 0 W/m2
05:10 33.4 °F 33.2 °F 30.39 in NE 5 mph 7 mph 99% 0.00 in 0 W/m2
05:20 33.4 °F 33.2 °F 30.39 in NNW 1 mph 5 mph 99% 0.00 in 0 W/m2
05:30 33.6 °F 33.4 °F 30.39 in Calm   3 mph 99% 0.00 in 0 W/m2
05:40 33.8 °F 33.5 °F 30.39 in North 3 mph 6 mph 99% 0.00 in 0 W/m2
05:50 34 °F 33.7 °F 30.39 in North 1 mph 2 mph 99% 0.00 in 0 W/m2
06:00 34.2 °F 33.9 °F 30.39 in North 3 mph 5 mph 99% 0.00 in 0 W/m2
06:10 34.2 °F 33.9 °F 30.38 in Calm   5 mph 99% 0.00 in 0 W/m2
06:20 34.2 °F 33.9 °F 30.39 in NNW 1 mph 3 mph 99% 0.00 in 0 W/m2
06:30 34.5 °F 34.3 °F 30.38 in WNW 1 mph 2 mph 99% 0.00 in 3 W/m2
06:40 34.7 °F 34.4 °F 30.38 in Calm   3 mph 99% 0.00 in 7 W/m2
06:50 35.1 °F 34.8 °F 30.38 in Calm   4 mph 99% 0.00 in 15 W/m2
07:00 35.4 °F 35.2 °F 30.39 in SSE 1 mph 3 mph 99% 0.00 in 30 W/m2
07:10 36 °F 35.7 °F 30.39 in North 2 mph 8 mph 99% 0.00 in 44 W/m2
07:20 36.9 °F 36.6 °F 30.40 in NE 2 mph 6 mph 99% 0.00 in 79 W/m2
07:30 38.1 °F 37.9 °F 30.40 in NE 3 mph 8 mph 99% 0.00 in 100 W/m2
07:40 40 °F 39.7 °F 30.40 in NE 1 mph 8 mph 99% 0.00 in 122 W/m2
07:50 41.8 °F 41.5 °F 30.40 in ENE 3 mph 10 mph 99% 0.00 in 144 W/m2
08:00 43.2 °F 42.1 °F 30.40 in NNE 7 mph 10 mph 96% 0.00 in 165 W/m2
08:10 44.6 °F 42.7 °F 30.39 in NNE 5 mph 13 mph 93% 0.00 in 158 W/m2
08:20 45.1 °F 42.4 °F 30.39 in North 7 mph 12 mph 90% 0.00 in 137 W/m2
08:30 45.5 °F 42.4 °F 30.40 in NNE 5 mph 13 mph 89% 0.00 in 176 W/m2
08:40 46 °F 43 °F 30.40 in North 6 mph 16 mph 89% 0.00 in 192 W/m2
08:50 46.2 °F 42.9 °F 30.40 in North 6 mph 14 mph 88% 0.00 in 145 W/m2
09:00 45.9 °F 42.5 °F 30.40 in North 6 mph 15 mph 88% 0.00 in 147 W/m2
09:10 45.5 °F 42.4 °F 30.40 in North 7 mph 14 mph 89% 0.00 in 164 W/m2
09:20 45.7 °F 42.4 °F 30.40 in North 7 mph 15 mph 88% 0.00 in 243 W/m2
09:30 46.4 °F 43 °F 30.40 in North 6 mph 13 mph 88% 0.00 in 335 W/m2
09:40 47.1 °F 42.9 °F 30.39 in North 7 mph 16 mph 85% 0.00 in 348 W/m2
09:50 47.9 °F 43.3 °F 30.40 in North 9 mph 15 mph 84% 0.00 in 361 W/m2
10:00 47.5 °F 42.6 °F 30.40 in North 7 mph 19 mph 83% 0.00 in 203 W/m2
10:10 46.8 °F 42.2 °F 30.39 in North 8 mph 17 mph 84% 0.00 in 220 W/m2
10:20 46.6 °F 41.7 °F 30.39 in North 3 mph 17 mph 83% 0.00 in 184 W/m2
10:30 46.4 °F 41.8 °F 30.39 in North 3 mph 17 mph 84% 0.00 in 200 W/m2
10:40 46.4 °F 41.8 °F 30.39 in North 7 mph 13 mph 84% 0.00 in 173 W/m2
10:50 46.2 °F 41.6 °F 30.39 in North 7 mph 13 mph 84% 0.00 in 165 W/m2
11:00 46.1 °F 41.5 °F 30.39 in North 5 mph 12 mph 84% 0.00 in 180 W/m2
11:10 46.2 °F 41.7 °F 30.38 in North 3 mph 12 mph 84% 0.00 in 189 W/m2
11:20 46.4 °F 41.8 °F 30.38 in North 3 mph 9 mph 84% 0.00 in 222 W/m2
11:30 46.6 °F 42 °F 30.38 in North 5 mph 14 mph 84% 0.00 in 202 W/m2
11:40 46.5 °F 42 °F 30.37 in North 5 mph 10 mph 84% 0.00 in 199 W/m2
11:50 46.4 °F 41.8 °F 30.37 in North 6 mph 12 mph 84% 0.00 in 179 W/m2
12:00 46.4 °F 41.8 °F 30.37 in North 6 mph 14 mph 84% 0.00 in 192 W/m2
12:10 46.4 °F 41.8 °F 30.37 in North 6 mph 15 mph 84% 0.00 in 199 W/m2
12:20 46.2 °F 41.7 °F 30.37 in North 6 mph 12 mph 84% 0.00 in 159 W/m2
12:30 45.9 °F 41.6 °F 30.37 in North 7 mph 13 mph 85% 0.00 in 137 W/m2
12:40 45.7 °F 41.4 °F 30.36 in North 7 mph 15 mph 85% 0.00 in 152 W/m2
12:50 45.5 °F 41.3 °F 30.36 in North 6 mph 13 mph 85% 0.00 in 206 W/m2
13:00 45.5 °F 41.3 °F 30.36 in North 7 mph 14 mph 85% 0.00 in 158 W/m2
13:10 45.1 °F 40.9 °F 30.35 in North 7 mph 16 mph 85% 0.00 in 132 W/m2
13:20 45 °F 41 °F 30.35 in North 7 mph 14 mph 86% 0.00 in 102 W/m2
13:30 44.6 °F 40.7 °F 30.35 in North 6 mph 15 mph 86% 0.00 in 108 W/m2
13:40 44.4 °F 41.1 °F 30.35 in North 5 mph 12 mph 88% 0.00 in 114 W/m2
13:50 44.2 °F 40.3 °F 30.35 in North 6 mph 13 mph 86% 0.00 in 101 W/m2
14:00 44.2 °F 40.9 °F 30.35 in North 5 mph 13 mph 88% 0.00 in 92 W/m2
14:10 44.1 °F 40.7 °F 30.35 in North 6 mph 14 mph 88% 0.00 in 70 W/m2
14:20 43.7 °F 40.4 °F 30.35 in North 6 mph 14 mph 88% 0.00 in 68 W/m2
14:30 43.7 °F 40.7 °F 30.34 in North 5 mph 13 mph 89% 0.00 in 69 W/m2
14:40 43.5 °F 40.5 °F 30.34 in North 5 mph 13 mph 89% 0.00 in 55 W/m2
14:50 43.3 °F 40.3 °F 30.34 in North 7 mph 15 mph 89% 0.00 in 47 W/m2
15:00 43.2 °F 40.1 °F 30.34 in NNW 7 mph 12 mph 89% 0.00 in 44 W/m2
15:10 43 °F 40 °F 30.34 in North 6 mph 12 mph 89% 0.00 in 33 W/m2
15:20 43 °F 40 °F 30.34 in North 6 mph 14 mph 89% 0.00 in 24 W/m2
15:30 43 °F 40 °F 30.34 in North 5 mph 14 mph 89% 0.00 in 14 W/m2
15:40 42.9 °F 39.8 °F 30.34 in North 5 mph 8 mph 89% 0.00 in 10 W/m2
15:50 42.8 °F 39.8 °F 30.34 in NNW 6 mph 12 mph 89% 0.00 in 4 W/m2
16:00 42.7 °F 40 °F 30.34 in North 5 mph 11 mph 90% 0.00 in 2 W/m2
16:10 42.6 °F 39.9 °F 30.34 in North 3 mph 12 mph 90% 0.00 in 0 W/m2
16:20 42.6 °F 39.9 °F 30.34 in North 6 mph 10 mph 90% 0.00 in 0 W/m2
16:30 42.4 °F 39.7 °F 30.34 in North 6 mph 10 mph 90% 0.00 in 0 W/m2
16:40 42.4 °F 39.7 °F 30.34 in North 7 mph 12 mph 90% 0.00 in 0 W/m2
16:50 42.4 °F 39.7 °F 30.34 in North 5 mph 11 mph 90% 0.00 in 0 W/m2
17:00 42.4 °F 39.7 °F 30.34 in North 6 mph 9 mph 90% 0.00 in 0 W/m2
17:10 42.4 °F 39.7 °F 30.34 in North 5 mph 9 mph 90% 0.00 in 0 W/m2
17:20 42.4 °F 39.7 °F 30.34 in North 5 mph 9 mph 90% 0.00 in 0 W/m2
17:30 42.3 °F 39.8 °F 30.34 in North 5 mph 9 mph 91% 0.00 in 0 W/m2
17:40 42.3 °F 39.8 °F 30.34 in North 5 mph 9 mph 91% 0.00 in 0 W/m2
17:50 42.3 °F 39.8 °F 30.34 in North 5 mph 10 mph 91% 0.00 in 0 W/m2
18:00 42.1 °F 40 °F 30.34 in North 3 mph 8 mph 92% 0.00 in 0 W/m2
18:10 42.1 °F 40.3 °F 30.34 in NNE 2 mph 8 mph 93% 0.00 in 0 W/m2
18:20 42.1 °F 40.2 °F 30.34 in NNE 1 mph 6 mph 93% 0.00 in 0 W/m2
18:30 42.1 °F 40.2 °F 30.34 in NW 1 mph 3 mph 93% 0.00 in 0 W/m2
18:40 42.1 °F 40.2 °F 30.33 in North 1 mph 7 mph 93% 0.00 in 0 W/m2
18:50 42.1 °F 40.2 °F 30.33 in North 2 mph 7 mph 93% 0.00 in 0 W/m2
19:00 41.9 °F 40 °F 30.33 in NNE 2 mph 5 mph 93% 0.00 in 0 W/m2
19:10 41.9 °F 40 °F 30.33 in NNW 1 mph 5 mph 93% 0.00 in 0 W/m2
19:20 41.9 °F 40 °F 30.32 in NNW 1 mph 6 mph 93% 0.00 in 0 W/m2
19:30 42 °F 40.1 °F 30.32 in NNE 2 mph 5 mph 93% 0.00 in 0 W/m2
19:40 41.9 °F 40 °F 30.32 in NW 1 mph 6 mph 93% 0.00 in 0 W/m2
19:50 41.9 °F 40 °F 30.32 in Calm   3 mph 93% 0.00 in 0 W/m2
20:00 41.9 °F 40 °F 30.32 in SSW 1 mph 2 mph 93% 0.00 in 0 W/m2
20:10 41.9 °F 40 °F 30.32 in West 1 mph 2 mph 93% 0.00 in 0 W/m2
21:20 41.7 °F 39.8 °F 30.32 in Calm   2 mph 93% 0.00 in 0 W/m2
21:30 41.7 °F 39.8 °F 30.32 in NNW 1 mph 3 mph 93% 0.00 in 0 W/m2
21:40 41.5 °F 39.7 °F 30.32 in West 2 mph 3 mph 93% 0.00 in 0 W/m2
21:50 41.4 °F 39.5 °F 30.32 in West 1 mph 4 mph 93% 0.00 in 0 W/m2
22:00 41.2 °F 39.3 °F 30.32 in Calm   2 mph 93% 0.00 in 0 W/m2
22:10 41 °F 39.1 °F 30.32 in Calm   2 mph 93% 0.00 in 0 W/m2
22:20 40.8 °F 39 °F 30.32 in Calm   3 mph 93% 0.00 in 0 W/m2
22:30 40.5 °F 38.6 °F 30.32 in Calm   3 mph 93% 0.00 in 0 W/m2
22:40 40.1 °F 38.2 °F 30.32 in West 1 mph 2 mph 93% 0.00 in 0 W/m2
22:50 39.7 °F 38.2 °F 30.32 in West 1 mph 3 mph 94% 0.00 in 0 W/m2
23:00 39.6 °F 38 °F 30.31 in West 1 mph 2 mph 94% 0.00 in 0 W/m2
23:10 39.5 °F 37.9 °F 30.31 in Calm   2 mph 94% 0.00 in 0 W/m2
23:20 39.2 °F 37.6 °F 30.31 in Calm   3 mph 94% 0.00 in 0 W/m2
23:30 39.1 °F 37.5 °F 30.31 in SSW 1 mph 2 mph 94% 0.00 in 0 W/m2
23:40 39 °F 37.7 °F 30.30 in West 1 mph 2 mph 95% 0.00 in 0 W/m2
23:50 38.8 °F 37.5 °F 30.30 in Calm   2 mph 95% 0.00 in 0 W/m2
Knjazevac, Serbia
Compliments of Weather Underground - 2 mb